Fairplay, CO (80440)

4:52 PM MDT on October 22, 2014 (GMT -0600)
Redhill Forest-West Slope | Change Station
CLOSE
Current Station
Personal Weather Station
Location: Fairplay, CO
Elevation: 9731 ft
Nearby Weather Stations

Elev 9731 ft 39.16 °N, 105.93 °W | Updated 11 minutes ago

Overcast
Overcast
48.0 °F
Feels Like 42 °F
N
16.1
Wind Variable Wind from WNW

Today
High -- | Low -- °F
--% Chance of Precip.
Yesterday
High -- | Low -- °F
Precip. -- in
7:20 AM 6:15 PM
Waning Crescent, 1% visible
Pressure 30.06 in
Visibility 10.0 miles
Clouds Overcast 6500 ft
Windchill 42 °F
Dew Point 28 °F
Humidity 45%
Rainfall 0.00 in
Snow Depth 0 in , 178 in
UV 1 out of 12
Pollen 2.40 out of 12
Air Quality Not available.
Flu Activity Sporadic
METAR KLXV 222153Z AUTO 32012G17KT 10SM OVC065 05/M01 A3031 RMK AO2 SLP178 T00501006

More Conditions Fewer Conditions

Pressure 30.06 in
Visibility 10.0 miles
Clouds Overcast 6500 ft
Windchill 42 °F
Dew Point 28 °F
Humidity 45%
Rainfall 0.00 in
Snow Depth 0 in , 178 in
UV 1 out of 12
Pollen 2.40 out of 12
Air Quality Not available.
Flu Activity Sporadic
METAR KLXV 222153Z AUTO 32012G17KT 10SM OVC065 05/M01 A3031 RMK AO2 SLP178 T00501006

More Conditions Fewer Conditions

10-Day Weather Forecast

Almanac

Astronomy

Oct. 22, 2014 Rise Set
Actual Time 7:20 AM MDT 6:15 PM MDT
Civil Twilight 6:53 AM MDT 6:42 PM MDT
Nautical Twilight 6:22 AM MDT 7:13 PM MDT
Astronomical Twilight 5:51 AM MDT 7:44 PM MDT
Moon 6:05 AM MDT 5:43 PM MDT
Length of Visible Light 11h 48m
Length of Day
10h 54m
Tomorrow will be 2m 23s shorter.
Waning Crescent, 1% of the Moon is Illuminated
Today
Waning Crescent
Oct 23
New
Oct 30
First Quarter
Nov 6
Full
Nov 14
Last Quarter

Today's Extremes

State Highs State Lows

Community

WunderPhotos

Upload Photos

1,764,065 photos uploaded!

WunderBlogs® & News

Nearby

Snow Depth

Station Depth Elevation
Hoosier Pass 0 in 11400 ft
Fremont Pass 178 in 11400 ft
Jackwhacker Gulch 0 in 10960 ft
Ivanhoe 0 in 10400 ft
Brumley 0 in 10600 ft

Earthquake Activity

City Distance Mag. Time & Date
No recent earthquake activity has been reported nearby.
Minimum magnitude displayed is 2.5.

Coastal Water Temperatures

Place Temperature
No Stations Reporting

Nearby Weather Stations